createdAt,value
2022-08-09T00:00:12.026Z,100.00
2022-08-09T00:02:43.010Z,100.00
2022-08-09T00:06:15.774Z,100.00
2022-08-09T00:08:09.956Z,100.00
2022-08-09T00:10:41.100Z,100.00
2022-08-09T00:13:16.677Z,100.00
2022-08-09T00:15:58.842Z,100.00
2022-08-09T00:18:29.907Z,100.00
2022-08-09T00:20:58.793Z,100.00
2022-08-09T00:23:57.603Z,100.00
2022-08-09T00:26:15.089Z,100.00
2022-08-09T00:28:42.455Z,100.00
2022-08-09T00:31:57.191Z,100.00
2022-08-09T00:34:10.965Z,100.00
2022-08-09T00:36:40.115Z,100.00
2022-08-09T00:39:16.999Z,100.00
2022-08-09T00:44:13.720Z,100.00
2022-08-09T00:44:47.090Z,100.00
2022-08-09T00:47:15.596Z,100.00
2022-08-09T00:49:54.562Z,100.00
2022-08-09T00:52:30.653Z,100.00
2022-08-09T00:55:01.201Z,100.00
2022-08-09T00:57:35.356Z,100.00
2022-08-09T01:00:21.219Z,100.00
2022-08-09T01:02:54.193Z,100.00
2022-08-09T01:05:50.741Z,100.00
2022-08-09T01:08:26.795Z,100.00
2022-08-09T01:11:09.822Z,100.00
2022-08-09T01:13:58.735Z,100.00
2022-08-09T01:16:33.443Z,100.00
2022-08-09T01:19:16.941Z,100.00
2022-08-09T01:22:16.700Z,100.00
2022-08-09T01:24:54.548Z,100.00
2022-08-09T01:27:27.611Z,100.00
2022-08-09T01:30:00.611Z,100.00
2022-08-09T01:32:46.043Z,100.00
2022-08-09T01:35:37.253Z,100.00
2022-08-09T01:38:15.315Z,100.00
2022-08-09T01:40:52.857Z,100.00
2022-08-09T01:43:51.309Z,100.00
2022-08-09T01:46:25.100Z,100.00
2022-08-09T01:48:57.447Z,100.00
2022-08-09T01:51:32.113Z,100.00
2022-08-09T01:54:04.153Z,100.00
2022-08-09T01:56:35.687Z,100.00
2022-08-09T01:59:09.795Z,100.00
2022-08-09T02:01:59.791Z,100.00
2022-08-09T02:04:29.275Z,100.00
2022-08-09T02:07:02.854Z,100.00
2022-08-09T02:09:42.589Z,100.00
2022-08-09T02:12:18.058Z,100.00
2022-08-09T02:14:53.452Z,100.00
2022-08-09T02:18:01.536Z,100.00
2022-08-09T02:20:15.925Z,100.00
2022-08-09T02:23:00.024Z,100.00
2022-08-09T02:25:31.263Z,100.00
2022-08-09T02:28:17.794Z,100.00
2022-08-09T02:30:58.701Z,100.00
2022-08-09T02:33:38.427Z,100.00
2022-08-09T02:36:22.561Z,100.00
2022-08-09T02:38:58.690Z,100.00
2022-08-09T02:41:38.459Z,100.00
2022-08-09T02:44:13.828Z,100.00
2022-08-09T02:47:04.227Z,100.00
2022-08-09T02:49:40.909Z,100.00
2022-08-09T02:52:13.238Z,100.00
2022-08-09T02:54:54.401Z,100.00
2022-08-09T02:57:25.153Z,100.00
2022-08-09T03:00:24.802Z,100.00
2022-08-09T03:02:59.721Z,100.00
2022-08-09T03:05:29.309Z,100.00
2022-08-09T03:07:57.687Z,100.00
2022-08-09T03:10:26.382Z,100.00
2022-08-09T03:12:54.815Z,100.00
2022-08-09T03:15:23.654Z,100.00
2022-08-09T03:17:58.655Z,100.00
2022-08-09T03:20:29.475Z,100.00
2022-08-09T03:23:14.755Z,100.00
2022-08-09T03:25:57.897Z,100.00
2022-08-09T03:28:27.330Z,100.00
2022-08-09T03:30:56.357Z,100.00
2022-08-09T03:33:53.538Z,100.00
2022-08-09T03:36:16.385Z,100.00
2022-08-09T03:38:45.104Z,100.00
2022-08-09T03:41:15.449Z,100.00
2022-08-09T03:43:51.630Z,100.00
2022-08-09T03:46:32.794Z,100.00
2022-08-09T03:49:03.782Z,100.00
2022-08-09T03:51:56.819Z,100.00
2022-08-09T03:54:29.222Z,100.00
2022-08-09T03:56:59.389Z,100.00
2022-08-09T03:59:42.943Z,100.00
2022-08-09T04:02:15.377Z,100.00
2022-08-09T04:04:58.708Z,100.00
2022-08-09T04:07:47.084Z,100.00
2022-08-09T04:10:20.273Z,100.00
2022-08-09T04:12:52.342Z,100.00
2022-08-09T04:15:40.507Z,100.00
2022-08-09T04:18:16.523Z,100.00
2022-08-09T04:20:50.413Z,100.00
2022-08-09T04:23:24.635Z,100.00
2022-08-09T04:25:54.165Z,100.00
2022-08-09T04:28:33.940Z,100.00
2022-08-09T04:31:09.813Z,100.00
2022-08-09T04:33:51.485Z,100.00
2022-08-09T04:36:29.173Z,100.00
2022-08-09T04:38:57.393Z,100.00
2022-08-09T04:41:32.393Z,100.00
2022-08-09T04:44:07.042Z,100.00
2022-08-09T04:46:59.421Z,100.00
2022-08-09T04:49:40.914Z,100.00
2022-08-09T04:52:22.016Z,100.00
2022-08-09T04:54:54.213Z,100.00
2022-08-09T04:57:24.447Z,100.00
2022-08-09T04:59:54.451Z,100.00
2022-08-09T05:02:22.940Z,100.00
2022-08-09T05:04:55.667Z,100.00
2022-08-09T05:07:29.136Z,100.00
2022-08-09T05:10:01.180Z,100.00
2022-08-09T05:12:31.269Z,100.00
2022-08-09T05:15:01.314Z,100.00
2022-08-09T05:18:38.648Z,100.00
2022-08-09T05:20:20.264Z,100.00
2022-08-09T05:23:55.605Z,100.00
2022-08-09T05:25:41.682Z,100.00
2022-08-09T05:28:08.767Z,100.00
2022-08-09T05:30:38.144Z,100.00
2022-08-09T05:33:10.889Z,100.00
2022-08-09T05:35:46.945Z,100.00
2022-08-09T05:38:21.672Z,100.00
2022-08-09T05:40:50.823Z,100.00
2022-08-09T05:43:18.631Z,100.00
2022-08-09T05:45:56.738Z,100.00
2022-08-09T05:48:32.723Z,100.00
2022-08-09T05:51:41.546Z,100.00
2022-08-09T05:53:56.890Z,100.00
2022-08-09T05:56:26.384Z,100.00
2022-08-09T05:58:57.530Z,100.00
2022-08-09T06:01:27.485Z,100.00
2022-08-09T06:04:01.717Z,100.00
2022-08-09T06:06:33.741Z,100.00
2022-08-09T06:09:02.928Z,100.00
2022-08-09T06:11:40.875Z,100.00
2022-08-09T06:14:25.484Z,100.00
2022-08-09T06:16:52.799Z,100.00
2022-08-09T06:19:20.841Z,100.00
2022-08-09T06:21:51.512Z,100.00
2022-08-09T06:24:27.352Z,100.00
2022-08-09T06:26:54.799Z,100.00
2022-08-09T06:29:22.832Z,100.00
2022-08-09T06:32:17.216Z,100.00
2022-08-09T06:34:40.672Z,100.00
2022-08-09T06:37:09.989Z,100.00
2022-08-09T06:39:59.963Z,100.00
2022-08-09T06:42:30.940Z,100.00
2022-08-09T06:45:04.599Z,100.00
2022-08-09T06:48:00.909Z,95.63
2022-08-09T06:50:31.106Z,96.51
2022-08-09T06:52:59.492Z,96.20
2022-08-09T06:55:28.302Z,96.25
2022-08-09T06:58:02.885Z,94.53
2022-08-09T07:00:55.963Z,95.72
2022-08-09T07:03:20.258Z,95.54
2022-08-09T07:06:04.844Z,96.39
2022-08-09T07:08:34.233Z,97.04
2022-08-09T07:11:03.712Z,96.25
2022-08-09T07:13:31.040Z,93.27
2022-08-09T07:16:42.832Z,95.64
2022-08-09T07:19:00.713Z,89.54
2022-08-09T07:21:31.010Z,89.75
2022-08-09T07:24:12.864Z,85.81
2022-08-09T07:26:41.856Z,87.81
2022-08-09T07:29:24.322Z,86.34
2022-08-09T07:31:55.157Z,80.36
2022-08-09T07:34:27.551Z,77.25
2022-08-09T07:37:04.642Z,66.07
2022-08-09T07:39:42.107Z,69.04
2022-08-09T07:42:35.189Z,65.15
2022-08-09T07:45:22.632Z,68.98
2022-08-09T07:48:01.712Z,71.87
2022-08-09T07:50:36.744Z,72.15
2022-08-09T07:56:03.476Z,69.71
2022-08-09T07:58:36.966Z,67.24
2022-08-09T08:01:06.564Z,70.17
2022-08-09T08:03:44.568Z,68.77
2022-08-09T08:06:15.313Z,63.33
2022-08-09T08:09:03.992Z,64.25
2022-08-09T08:12:24.840Z,63.64
2022-08-09T08:14:25.782Z,64.13
2022-08-09T08:17:07.816Z,63.37
2022-08-09T08:19:39.383Z,65.64
2022-08-09T08:22:08.135Z,62.77
2022-08-09T08:24:40.594Z,60.72
2022-08-09T08:27:17.066Z,60.12
2022-08-09T08:29:50.135Z,57.43
2022-08-09T08:32:29.201Z,58.01
2022-08-09T08:34:58.892Z,58.38
2022-08-09T08:37:41.549Z,54.66
2022-08-09T08:40:15.877Z,56.04
2022-08-09T08:42:47.183Z,55.59
2022-08-09T08:45:36.837Z,54.00
2022-08-09T08:48:06.108Z,49.79
2022-08-09T08:50:34.003Z,51.76
2022-08-09T08:53:04.052Z,50.82
2022-08-09T08:55:33.063Z,50.24
2022-08-09T08:58:00.952Z,53.03
2022-08-09T09:00:35.025Z,49.81
2022-08-09T09:03:08.824Z,51.40
2022-08-09T09:06:01.062Z,50.79
2022-08-09T09:08:32.124Z,51.16
2022-08-09T09:11:08.656Z,50.73
2022-08-09T09:13:56.234Z,49.15
2022-08-09T09:16:34.137Z,51.11
2022-08-09T09:22:11.764Z,47.15
2022-08-09T09:24:43.672Z,47.39
2022-08-09T09:28:03.271Z,45.79
2022-08-09T09:30:22.719Z,45.76
2022-08-09T09:33:15.779Z,48.24
2022-08-09T09:36:01.744Z,45.31
2022-08-09T09:38:42.821Z,43.95
2022-08-09T09:41:12.616Z,44.14
2022-08-09T09:43:41.504Z,41.75
2022-08-09T09:46:42.292Z,44.00
2022-08-09T09:49:31.727Z,43.03
2022-08-09T09:52:33.689Z,41.70
2022-08-09T09:55:16.141Z,42.40
2022-08-09T09:58:03.742Z,43.37
2022-08-09T10:00:33.713Z,43.59
2022-08-09T10:03:11.733Z,43.57
2022-08-09T10:06:16.854Z,44.25
2022-08-09T10:12:04.601Z,44.18
2022-08-09T10:14:30.556Z,43.83
2022-08-09T10:17:40.003Z,43.94
2022-08-09T10:19:57.704Z,44.27
2022-08-09T10:25:21.054Z,40.77
2022-08-09T10:27:56.994Z,39.68
2022-08-09T10:32:21.049Z,37.43
2022-08-09T10:34:04.475Z,39.09
2022-08-09T10:36:05.411Z,40.65
2022-08-09T10:41:23.438Z,40.61
2022-08-09T10:44:01.136Z,41.31
2022-08-09T10:48:13.212Z,40.12
2022-08-09T10:50:09.921Z,38.98
2022-08-09T10:55:58.438Z,38.76
2022-08-09T10:58:37.292Z,38.60
2022-08-09T11:03:15.493Z,38.92
2022-08-09T11:04:19.673Z,39.10
2022-08-09T11:07:54.946Z,38.02
2022-08-09T11:10:38.899Z,35.71
2022-08-09T11:13:54.158Z,37.37
2022-08-09T11:16:37.524Z,35.65
2022-08-09T11:19:11.423Z,36.80
2022-08-09T11:22:05.114Z,36.32
2022-08-09T11:25:08.110Z,35.63
2022-08-09T11:28:04.669Z,36.85
2022-08-09T11:30:37.707Z,35.13
2022-08-09T11:33:13.599Z,34.66
2022-08-09T11:35:52.136Z,35.40
2022-08-09T11:38:32.733Z,34.05
2022-08-09T11:41:25.146Z,36.05
2022-08-09T11:44:06.386Z,36.20
2022-08-09T11:46:56.228Z,35.13
2022-08-09T11:53:57.972Z,37.15
2022-08-09T11:56:42.034Z,35.33
2022-08-09T11:59:33.604Z,35.53
2022-08-09T12:02:34.294Z,35.17
2022-08-09T12:05:03.092Z,34.38
2022-08-09T12:07:41.309Z,33.73
2022-08-09T12:10:31.757Z,34.53
2022-08-09T12:15:50.093Z,32.61
2022-08-09T12:18:26.212Z,33.36
2022-08-09T12:23:58.068Z,34.37
2022-08-09T12:29:00.150Z,35.07
2022-08-09T12:29:43.875Z,34.73
2022-08-09T12:32:27.173Z,34.37
2022-08-09T12:35:03.149Z,35.96
2022-08-09T12:37:33.214Z,36.51
2022-08-09T12:40:20.898Z,33.36
2022-08-09T12:42:50.583Z,35.44
2022-08-09T12:45:32.387Z,36.36
2022-08-09T12:48:05.600Z,34.45
2022-08-09T12:50:41.235Z,33.17
2022-08-09T12:56:37.010Z,31.82
2022-08-09T12:59:23.582Z,33.32
2022-08-09T13:02:15.189Z,32.46
2022-08-09T13:05:02.462Z,33.22
2022-08-09T13:07:51.195Z,32.75
2022-08-09T13:10:22.110Z,32.15
2022-08-09T13:13:10.299Z,32.94
2022-08-09T13:15:51.718Z,34.21
2022-08-09T13:18:21.066Z,34.11
2022-08-09T13:22:33.122Z,33.75
2022-08-09T13:24:42.544Z,32.77
2022-08-09T13:26:37.116Z,33.82
2022-08-09T13:30:02.848Z,34.29
2022-08-09T13:32:27.603Z,31.58
2022-08-09T13:34:56.810Z,33.23
2022-08-09T13:37:50.770Z,32.53
2022-08-09T13:41:50.813Z,34.23
2022-08-09T13:43:05.023Z,32.17
2022-08-09T13:46:44.587Z,33.45
2022-08-09T13:48:25.068Z,33.67
2022-08-09T13:50:57.264Z,33.28
2022-08-09T13:53:28.522Z,32.82
2022-08-09T13:56:12.446Z,33.58
2022-08-09T13:58:40.175Z,33.99
2022-08-09T14:01:07.862Z,33.56
2022-08-09T14:04:02.713Z,33.78
2022-08-09T14:06:31.653Z,33.56
2022-08-09T14:08:59.535Z,34.01
2022-08-09T14:11:29.082Z,33.89
2022-08-09T14:14:23.613Z,33.54
2022-08-09T14:18:16.573Z,34.57
2022-08-09T14:20:30.867Z,33.41
2022-08-09T14:22:59.038Z,32.95
2022-08-09T14:25:44.526Z,33.34
2022-08-09T14:28:21.128Z,33.56
2022-08-09T14:30:48.409Z,34.02
2022-08-09T14:33:20.731Z,34.19
2022-08-09T14:35:53.283Z,34.40
2022-08-09T14:38:20.818Z,34.55
2022-08-09T14:41:04.549Z,34.61
2022-08-09T14:43:47.820Z,35.02
2022-08-09T14:46:56.645Z,34.81
2022-08-09T14:49:23.582Z,35.26
2022-08-09T14:54:57.975Z,35.48
2022-08-09T14:57:25.873Z,35.98
2022-08-09T15:00:01.164Z,35.68
2022-08-09T15:02:40.965Z,35.65
2022-08-09T15:05:10.567Z,35.49
2022-08-09T15:07:40.429Z,36.84
2022-08-09T15:10:16.316Z,36.30
2022-08-09T15:12:45.335Z,36.96
2022-08-09T15:15:18.135Z,36.94
2022-08-09T15:17:51.811Z,37.58
2022-08-09T15:21:54.981Z,36.87
2022-08-09T15:24:01.904Z,37.05
2022-08-09T15:25:56.630Z,37.64
2022-08-09T15:28:28.105Z,38.09
2022-08-09T15:31:10.170Z,37.94
2022-08-09T15:34:27.310Z,37.67
2022-08-09T15:36:30.161Z,37.30
2022-08-09T15:38:57.983Z,37.45
2022-08-09T15:41:32.180Z,37.59
2022-08-09T15:44:02.061Z,38.25
2022-08-09T15:46:35.167Z,37.78
2022-08-09T15:49:22.778Z,37.53
2022-08-09T15:52:02.785Z,37.54
2022-08-09T15:54:42.993Z,37.98
2022-08-09T15:57:14.179Z,37.67
2022-08-09T15:59:55.459Z,38.28
2022-08-09T16:02:27.531Z,37.94
2022-08-09T16:04:56.201Z,39.24
2022-08-09T16:07:23.750Z,38.75
2022-08-09T16:10:02.337Z,38.42
2022-08-09T16:12:35.813Z,38.15
2022-08-09T16:16:04.392Z,38.21
2022-08-09T16:18:01.834Z,37.46
2022-08-09T16:20:30.859Z,38.55
2022-08-09T16:22:58.370Z,38.60
2022-08-09T16:25:40.558Z,38.30
2022-08-09T16:28:12.186Z,39.05
2022-08-09T16:30:44.595Z,38.38
2022-08-09T16:33:15.929Z,37.96
2022-08-09T16:35:57.024Z,39.08
2022-08-09T16:38:27.548Z,38.34
2022-08-09T16:40:57.285Z,39.12
2022-08-09T16:43:26.698Z,39.42
2022-08-09T16:45:55.901Z,39.76
2022-08-09T16:48:42.504Z,39.73
2022-08-09T16:51:14.108Z,39.22
2022-08-09T16:56:48.914Z,37.68
2022-08-09T16:59:20.132Z,37.09
2022-08-09T17:01:51.279Z,38.02
2022-08-09T17:04:28.457Z,37.24
2022-08-09T17:08:40.653Z,37.72
2022-08-09T17:09:47.250Z,38.56
2022-08-09T17:12:15.283Z,38.04
2022-08-09T17:14:47.673Z,38.05
2022-08-09T17:17:26.256Z,38.29
2022-08-09T17:20:33.066Z,38.35
2022-08-09T17:22:52.868Z,38.77
2022-08-09T17:25:21.995Z,38.48
2022-08-09T17:27:54.007Z,38.45
2022-08-09T17:30:25.929Z,38.42
2022-08-09T17:32:55.183Z,39.01
2022-08-09T17:35:32.032Z,39.45
2022-08-09T17:38:11.944Z,39.94
2022-08-09T17:40:42.189Z,39.54
2022-08-09T17:43:34.379Z,39.72
2022-08-09T17:46:06.281Z,40.89
2022-08-09T17:48:38.693Z,40.82
2022-08-09T17:51:18.709Z,40.16
2022-08-09T17:53:52.845Z,40.26
2022-08-09T17:56:28.955Z,40.48
2022-08-09T17:59:03.021Z,41.76
2022-08-09T18:02:03.682Z,40.33
2022-08-09T18:04:19.368Z,41.98
2022-08-09T18:06:55.285Z,41.11
2022-08-09T18:09:24.448Z,41.72
2022-08-09T18:12:14.587Z,42.17
2022-08-09T18:14:53.872Z,41.08
2022-08-09T18:17:27.687Z,41.59
2022-08-09T18:20:58.836Z,43.04
2022-08-09T18:23:05.609Z,43.03
2022-08-09T18:25:49.999Z,45.17
2022-08-09T18:30:38.508Z,46.40
2022-08-09T18:31:09.731Z,46.09
2022-08-09T18:33:37.643Z,46.89
2022-08-09T18:36:14.503Z,48.22
2022-08-09T18:39:00.989Z,48.63
2022-08-09T18:41:34.991Z,49.16
2022-08-09T18:44:12.962Z,49.27
2022-08-09T18:46:50.004Z,49.78
2022-08-09T18:49:32.203Z,49.42
2022-08-09T18:52:11.513Z,50.14
2022-08-09T18:54:49.722Z,52.08
2022-08-09T18:57:23.130Z,52.44
2022-08-09T18:59:57.360Z,51.95
2022-08-09T19:02:32.111Z,51.81
2022-08-09T19:05:04.014Z,53.57
2022-08-09T19:08:04.741Z,53.60
2022-08-09T19:10:36.977Z,52.39
2022-08-09T19:13:20.576Z,55.10
2022-08-09T19:15:51.703Z,55.09
2022-08-09T19:18:33.975Z,56.25
2022-08-09T19:21:09.106Z,57.45
2022-08-09T19:24:32.046Z,57.35
2022-08-09T19:26:29.411Z,57.98
2022-08-09T19:29:01.742Z,58.48
2022-08-09T19:31:45.242Z,59.94
2022-08-09T19:34:21.538Z,61.19
2022-08-09T19:36:52.714Z,61.64
2022-08-09T19:39:42.900Z,61.09
2022-08-09T19:42:15.161Z,59.92
2022-08-09T19:44:49.271Z,60.63
2022-08-09T19:47:22.924Z,60.21
2022-08-09T19:50:06.932Z,62.23
2022-08-09T19:52:37.069Z,62.93
2022-08-09T19:55:17.317Z,63.17
2022-08-09T19:57:48.854Z,64.46
2022-08-09T20:00:18.234Z,64.11
2022-08-09T20:04:23.944Z,64.76
2022-08-09T20:05:46.107Z,64.82
2022-08-09T20:08:16.187Z,64.64
2022-08-09T20:10:53.233Z,66.51
2022-08-09T20:13:23.557Z,66.93
2022-08-09T20:16:33.584Z,66.54
2022-08-09T20:19:04.051Z,66.67
2022-08-09T20:21:40.713Z,65.86
2022-08-09T20:24:19.369Z,66.20
2022-08-09T20:27:00.207Z,66.66
2022-08-09T20:29:36.994Z,62.64
2022-08-09T20:32:31.258Z,64.42
2022-08-09T20:34:55.753Z,64.87
2022-08-09T20:38:22.542Z,66.88
2022-08-09T20:40:26.995Z,67.15
2022-08-09T20:42:59.852Z,68.36
2022-08-09T20:46:01.507Z,67.85
2022-08-09T20:48:33.245Z,69.52
2022-08-09T20:51:02.979Z,70.23
2022-08-09T20:53:36.770Z,70.14
2022-08-09T20:56:08.778Z,69.86
2022-08-09T20:58:38.027Z,70.71
2022-08-09T21:01:33.291Z,72.53
2022-08-09T21:05:48.148Z,71.40
2022-08-09T21:06:49.483Z,71.76
2022-08-09T21:09:38.135Z,72.30
2022-08-09T21:14:40.646Z,74.06
2022-08-09T21:18:22.064Z,72.87
2022-08-09T21:20:17.721Z,73.64
2022-08-09T21:22:54.134Z,74.61
2022-08-09T21:25:38.169Z,74.49
2022-08-09T21:28:12.289Z,75.41
2022-08-09T21:30:43.460Z,75.69
2022-08-09T21:33:16.024Z,74.13
2022-08-09T21:35:51.183Z,75.85
2022-08-09T21:38:30.812Z,77.49
2022-08-09T21:40:59.393Z,79.47
2022-08-09T21:43:46.620Z,79.49
2022-08-09T21:46:15.542Z,80.02
2022-08-09T21:48:49.227Z,79.41
2022-08-09T21:51:24.522Z,79.31
2022-08-09T21:54:04.224Z,80.85
2022-08-09T21:56:43.116Z,81.26
2022-08-09T21:59:16.082Z,81.30
2022-08-09T22:01:58.509Z,82.05
2022-08-09T22:04:57.379Z,82.08
2022-08-09T22:07:23.316Z,80.26
2022-08-09T22:10:02.956Z,81.73
2022-08-09T22:12:34.840Z,82.24
2022-08-09T22:15:03.159Z,82.80
2022-08-09T22:17:32.114Z,84.08
2022-08-09T22:20:01.557Z,84.18
2022-08-09T22:22:29.948Z,84.07
2022-08-09T22:26:08.309Z,84.50
2022-08-09T22:27:45.061Z,82.63
2022-08-09T22:30:13.322Z,84.01
2022-08-09T22:32:42.430Z,84.68
2022-08-09T22:36:01.492Z,86.89
2022-08-09T22:38:06.797Z,87.83
2022-08-09T22:40:36.103Z,86.81
2022-08-09T22:43:16.051Z,86.51
2022-08-09T22:48:10.230Z,88.07
2022-08-09T22:48:34.978Z,91.24
2022-08-09T22:51:10.590Z,91.23
2022-08-09T22:53:58.690Z,91.74
2022-08-09T22:56:30.564Z,90.68
2022-08-09T22:59:05.402Z,90.40
2022-08-09T23:01:34.242Z,89.95
2022-08-09T23:04:03.554Z,92.74
2022-08-09T23:06:36.383Z,92.37
2022-08-09T23:09:07.431Z,93.49
2022-08-09T23:11:35.303Z,92.51
2022-08-09T23:14:02.619Z,93.77
2022-08-09T23:16:29.805Z,93.03
2022-08-09T23:18:57.179Z,93.29
2022-08-09T23:21:32.831Z,94.13
2022-08-09T23:24:04.214Z,95.15
2022-08-09T23:26:34.240Z,95.71
2022-08-09T23:29:01.910Z,96.26
2022-08-09T23:31:29.542Z,98.88
2022-08-09T23:33:56.910Z,98.12
2022-08-09T23:36:24.148Z,97.90
2022-08-09T23:38:52.050Z,98.28
2022-08-09T23:41:29.120Z,99.18
2022-08-09T23:43:59.183Z,99.18
2022-08-09T23:46:27.765Z,99.59
2022-08-09T23:48:55.992Z,100.00
2022-08-09T23:51:23.359Z,100.00
2022-08-09T23:53:52.588Z,100.00
2022-08-09T23:56:53.052Z,100.00
2022-08-09T23:59:12.151Z,98.79
